Time;durP1;ratioP1;P1;durP2;ratioP2;P2;SDS_P1;SDS_P2;PMS_P1;PMS_P2;Temp;Humidity;BMP_temperature;BMP_pressure;BME280_temperature;BME280_humidity;BME280_pressure;Samples;Min_cycle;Max_cycle;Signal;HPM_P1;HPM_P2
2021/09/10 00:00:27;;;;;;;;;;;;;;;19.98;56.55;101069.00;5119145;27;1008;-57
2021/09/10 00:02:52;;;;;;;;;;;;;;;19.89;56.82;101065.19;5119064;28;827;-55
2021/09/10 00:05:17;;;;;;;;;;;;;;;19.91;56.76;101063.81;5119077;28;763;-44
2021/09/10 00:07:43;;;;;;;;;;;;;;;19.99;56.31;101065.09;5119350;28;807;-58
2021/09/10 00:10:09;;;;;;;;;;;;;;;19.99;56.39;101065.94;5118848;28;1103;-53
2021/09/10 00:12:34;;;;;;;;;;;;;;;19.91;56.75;101066.56;5119212;28;907;-57
2021/09/10 00:14:59;;;;;;;;;;;;;;;20.05;56.18;101063.97;5118588;27;980;-45
2021/09/10 00:17:25;;;;;;;;;;;;;;;20.01;56.52;101068.41;5118769;28;870;-56
2021/09/10 00:19:50;;;;;;;;;;;;;;;19.98;56.57;101057.97;5119847;28;838;-58
2021/09/10 00:22:16;;;;;;;;;;;;;;;19.88;56.95;101069.91;5134054;27;1549;-57
2021/09/10 00:24:41;;;;;;;;;;;;;;;19.88;56.89;101064.38;5139394;27;755;-52
2021/09/10 00:27:07;;;;;;;;;;;;;;;19.91;56.99;101068.47;5139778;27;794;-55
2021/09/10 00:29:32;;;;;;;;;;;;;;;19.80;56.88;101071.34;5128868;27;1004;-56
2021/09/10 00:31:58;;;;;;;;;;;;;;;19.80;57.27;101078.81;5118799;28;782;-58
2021/09/10 00:34:23;;;;;;;;;;;;;;;19.91;56.72;101076.75;5118562;28;1909;-55
2021/09/10 00:36:49;;;;;;;;;;;;;;;20.00;56.57;101066.75;5118528;28;778;-52
2021/09/10 00:39:14;;;;;;;;;;;;;;;19.93;56.82;101067.09;5119007;28;875;-56
2021/09/10 00:41:40;;;;;;;;;;;;;;;20.03;56.24;101071.69;5118205;28;779;-57
2021/09/10 00:44:05;;;;;;;;;;;;;;;19.97;56.51;101081.16;5118123;27;953;-57
2021/09/10 00:46:31;;;;;;;;;;;;;;;19.82;57.03;101082.09;5118853;28;743;-58
2021/09/10 00:48:56;;;;;;;;;;;;;;;19.91;56.75;101074.00;5117742;28;906;-45
2021/09/10 00:51:22;;;;;;;;;;;;;;;19.88;56.90;101069.06;5118397;28;767;-57
2021/09/10 00:53:47;;;;;;;;;;;;;;;19.78;56.94;101076.31;5117280;28;1913;-58
2021/09/10 00:56:12;;;;;;;;;;;;;;;19.91;56.97;101071.25;5118007;28;775;-57
2021/09/10 00:58:38;;;;;;;;;;;;;;;19.95;56.60;101064.03;5117966;27;1008;-57
2021/09/10 01:01:03;;;;;;;;;;;;;;;19.96;56.68;101076.72;5118172;28;783;-57
2021/09/10 01:03:29;;;;;;;;;;;;;;;19.91;56.62;101068.47;5118179;28;865;-44
2021/09/10 01:05:55;;;;;;;;;;;;;;;19.90;56.80;101069.63;5117261;28;783;-44
2021/09/10 01:08:20;;;;;;;;;;;;;;;19.88;56.82;101063.53;5118612;28;852;-44
2021/09/10 01:10:49;;;;;;;;;;;;;;;19.99;56.49;101060.44;5117566;28;1094;-44
2021/09/10 01:13:14;;;;;;;;;;;;;;;20.01;56.48;101062.91;5117975;28;1972;-43
2021/09/10 01:15:40;;;;;;;;;;;;;;;19.90;56.78;101075.13;5117726;27;1000;-44
2021/09/10 01:18:05;;;;;;;;;;;;;;;19.88;56.89;101066.31;5116634;28;1382;-43
2021/09/10 01:20:31;;;;;;;;;;;;;;;19.92;56.55;101075.66;5118204;28;1644;-43
2021/09/10 01:22:56;;;;;;;;;;;;;;;19.83;56.88;101076.28;5138917;27;794;-43
2021/09/10 01:25:22;;;;;;;;;;;;;;;19.90;56.69;101078.72;5138176;27;759;-50
2021/09/10 01:27:48;;;;;;;;;;;;;;;19.94;56.43;101087.25;5138149;27;739;-43
2021/09/10 01:30:14;;;;;;;;;;;;;;;19.99;56.29;101084.44;5122273;27;948;-57
2021/09/10 01:32:39;;;;;;;;;;;;;;;19.96;56.62;101085.00;5117234;28;2054;-43
2021/09/10 01:35:05;;;;;;;;;;;;;;;20.02;56.31;101088.53;5117839;28;782;-43
2021/09/10 01:37:30;;;;;;;;;;;;;;;19.76;57.16;101077.69;5117747;27;759;-44
2021/09/10 01:39:56;;;;;;;;;;;;;;;19.81;56.84;101073.00;5117307;28;842;-43
2021/09/10 01:42:21;;;;;;;;;;;;;;;19.85;56.99;101072.41;5117683;28;767;-43
2021/09/10 01:44:47;;;;;;;;;;;;;;;19.85;57.15;101064.13;5128879;27;953;-45
2021/09/10 01:47:12;;;;;;;;;;;;;;;19.88;56.96;101061.63;5137488;27;799;-55
2021/09/10 01:49:38;;;;;;;;;;;;;;;19.86;57.00;101054.75;5138739;27;751;-43
2021/09/10 01:52:03;;;;;;;;;;;;;;;20.00;56.87;101055.72;5137268;27;815;-55
2021/09/10 01:54:28;;;;;;;;;;;;;;;19.98;56.92;101061.53;5137492;27;1902;-46
2021/09/10 01:56:54;;;;;;;;;;;;;;;19.96;56.96;101049.13;5137793;27;870;-56
2021/09/10 01:59:20;;;;;;;;;;;;;;;20.05;56.63;101052.91;5136215;27;977;-43
2021/09/10 02:01:45;;;;;;;;;;;;;;;19.95;56.63;101056.59;5137792;27;795;-43
2021/09/10 02:04:10;;;;;;;;;;;;;;;19.87;56.84;101059.16;5137977;27;826;-43
2021/09/10 02:06:36;;;;;;;;;;;;;;;19.94;56.91;101056.88;5137285;27;766;-43
2021/09/10 02:09:01;;;;;;;;;;;;;;;19.92;56.85;101057.19;5137190;27;1022;-43
2021/09/10 02:11:27;;;;;;;;;;;;;;;20.02;56.53;101047.97;5137890;27;813;-44
2021/09/10 02:13:52;;;;;;;;;;;;;;;19.86;56.82;101043.72;5132327;27;1905;-54
2021/09/10 02:16:18;;;;;;;;;;;;;;;19.77;57.13;101047.06;5117124;28;798;-44
2021/09/10 02:18:43;;;;;;;;;;;;;;;19.91;56.66;101040.88;5116893;28;747;-48
2021/09/10 02:21:09;;;;;;;;;;;;;;;19.86;56.54;101038.19;5122253;27;1624;-43
2021/09/10 02:23:34;;;;;;;;;;;;;;;19.89;56.64;101026.56;5137420;27;819;-51
2021/09/10 02:26:00;;;;;;;;;;;;;;;19.85;56.65;101017.22;5137529;27;743;-44
2021/09/10 02:28:25;;;;;;;;;;;;;;;19.81;56.91;101020.56;5136315;27;945;-55
2021/09/10 02:30:51;;;;;;;;;;;;;;;19.93;56.44;101022.13;5114858;28;942;-44
2021/09/10 02:33:17;;;;;;;;;;;;;;;19.95;56.53;101022.63;5116711;28;1974;-43
2021/09/10 02:35:42;;;;;;;;;;;;;;;20.00;56.43;101019.84;5116691;28;780;-48
2021/09/10 02:38:07;;;;;;;;;;;;;;;19.93;56.68;101022.13;5116217;28;744;-43
2021/09/10 02:40:33;;;;;;;;;;;;;;;19.96;56.35;101021.53;5116434;28;868;-44
2021/09/10 02:42:58;;;;;;;;;;;;;;;19.94;56.52;101021.81;5116585;28;830;-46
2021/09/10 02:45:24;;;;;;;;;;;;;;;19.90;56.66;101023.50;5115740;27;926;-46
2021/09/10 02:47:49;;;;;;;;;;;;;;;19.86;56.71;101021.63;5116656;28;827;-44
2021/09/10 02:50:15;;;;;;;;;;;;;;;19.87;57.13;101023.28;5116321;28;759;-43
2021/09/10 02:52:41;;;;;;;;;;;;;;;19.90;56.84;101023.50;5115355;28;1938;-44
2021/09/10 02:55:08;;;;;;;;;;;;;;;19.81;57.12;101030.75;5116589;28;791;-43
2021/09/10 02:57:34;;;;;;;;;;;;;;;20.10;56.15;101033.53;5116381;28;803;-43
2021/09/10 03:00:03;;;;;;;;;;;;;;;19.86;56.66;101027.97;5115734;27;1008;-44
2021/09/10 03:02:29;;;;;;;;;;;;;;;19.85;57.16;101025.50;5116135;28;775;-55
2021/09/10 03:04:55;;;;;;;;;;;;;;;19.79;56.98;101033.81;5117733;28;859;-56
2021/09/10 03:07:20;;;;;;;;;;;;;;;19.78;57.22;101026.63;5120980;28;820;-43
2021/09/10 03:09:46;;;;;;;;;;;;;;;19.99;56.47;101023.69;5119751;28;1122;-56
2021/09/10 03:12:11;;;;;;;;;;;;;;;19.94;56.56;101018.25;5120594;28;767;-44
2021/09/10 03:14:37;;;;;;;;;;;;;;;19.93;56.62;101011.06;5120251;27;1917;-43
2021/09/10 03:17:03;;;;;;;;;;;;;;;19.88;56.79;101003.69;5120289;28;885;-50
2021/09/10 03:19:28;;;;;;;;;;;;;;;19.91;56.45;101002.25;5120400;28;850;-44
2021/09/10 03:21:53;;;;;;;;;;;;;;;19.88;56.60;101000.06;5132512;27;1537;-45
2021/09/10 03:24:19;;;;;;;;;;;;;;;19.82;57.07;100997.38;5140634;27;759;-43
2021/09/10 03:26:44;;;;;;;;;;;;;;;19.85;56.98;100997.91;5140875;27;810;-44
2021/09/10 03:29:10;;;;;;;;;;;;;;;19.88;56.69;100989.03;5133624;27;972;-43
2021/09/10 03:31:35;;;;;;;;;;;;;;;20.02;56.40;100990.03;5119844;28;838;-57
2021/09/10 03:34:01;;;;;;;;;;;;;;;19.94;56.85;100990.66;5120123;27;1921;-57
2021/09/10 03:36:27;;;;;;;;;;;;;;;19.93;56.86;100997.28;5119845;28;751;-56
2021/09/10 03:38:52;;;;;;;;;;;;;;;19.91;57.10;100997.56;5119485;27;795;-51
2021/09/10 03:41:18;;;;;;;;;;;;;;;19.93;57.09;100995.31;5120027;28;535;-43
2021/09/10 03:43:44;;;;;;;;;;;;;;;19.95;56.83;100992.28;5119467;27;965;-44
2021/09/10 03:46:10;;;;;;;;;;;;;;;19.98;56.91;100991.72;5119719;28;814;-44
2021/09/10 03:48:35;;;;;;;;;;;;;;;20.09;56.62;100997.94;5119612;28;866;-45
2021/09/10 03:51:00;;;;;;;;;;;;;;;19.97;57.03;100996.41;5119659;28;815;-47
2021/09/10 03:53:26;;;;;;;;;;;;;;;20.07;56.86;100994.66;5119491;28;1937;-48
2021/09/10 03:55:51;;;;;;;;;;;;;;;20.62;55.32;100999.81;5119818;28;858;-47
2021/09/10 03:58:17;;;;;;;;;;;;;;;20.25;56.06;101002.19;5119477;28;882;-46
2021/09/10 04:00:43;;;;;;;;;;;;;;;20.34;55.97;101010.63;5118532;27;957;-48
2021/09/10 04:03:08;;;;;;;;;;;;;;;20.24;56.24;101008.00;5119670;28;806;-53
2021/09/10 04:05:34;;;;;;;;;;;;;;;20.34;56.03;101013.41;5119412;28;834;-47
2021/09/10 04:08:00;;;;;;;;;;;;;;;20.21;56.44;101005.84;5119414;28;478;-44
2021/09/10 04:10:26;;;;;;;;;;;;;;;20.32;55.96;101010.13;5141430;27;1311;-54
2021/09/10 04:12:53;;;;;;;;;;;;;;;20.25;56.20;101013.22;5156866;27;1913;-47
2021/09/10 04:15:19;;;;;;;;;;;;;;;20.13;56.62;101013.63;5125745;27;924;-48
2021/09/10 04:17:44;;;;;;;;;;;;;;;20.08;56.74;101010.91;5119673;28;838;-45
2021/09/10 04:20:12;;;;;;;;;;;;;;;20.21;56.34;101012.16;5119194;28;779;-57
2021/09/10 04:22:37;;;;;;;;;;;;;;;20.25;56.27;101012.41;5137126;27;1569;-56
2021/09/10 04:25:03;;;;;;;;;;;;;;;20.42;55.90;101007.22;5139727;27;778;-56
2021/09/10 04:27:28;;;;;;;;;;;;;;;20.25;56.35;101006.88;5137770;27;984;-58
2021/09/10 04:29:54;;;;;;;;;;;;;;;20.46;55.57;101019.34;5125711;27;952;-46
2021/09/10 04:32:19;;;;;;;;;;;;;;;20.62;55.08;101020.00;5118864;28;771;-55
2021/09/10 04:34:47;;;;;;;;;;;;;;;20.47;55.70;101021.00;5119396;28;1913;-50
2021/09/10 04:37:12;;;;;;;;;;;;;;;20.40;56.01;101017.75;5118756;28;786;-55
2021/09/10 04:39:38;;;;;;;;;;;;;;;20.24;56.48;101016.28;5118402;28;759;-57
2021/09/10 04:42:03;;;;;;;;;;;;;;;20.43;55.81;101014.41;5118765;28;771;-54
2021/09/10 04:44:29;;;;;;;;;;;;;;;20.57;55.25;101014.53;5118154;27;1000;-47
2021/09/10 04:46:54;;;;;;;;;;;;;;;20.64;55.18;101019.69;5118862;28;768;-52
2021/09/10 04:49:19;;;;;;;;;;;;;;;20.77;54.56;101021.75;5118628;28;779;-47
2021/09/10 04:51:45;;;;;;;;;;;;;;;20.61;54.94;101028.59;5118258;28;807;-48
2021/09/10 04:54:14;;;;;;;;;;;;;;;20.45;55.38;101025.97;5118484;28;1914;-51
2021/09/10 04:56:41;;;;;;;;;;;;;;;20.65;54.82;101029.59;5118686;28;743;-54
2021/09/10 04:59:06;;;;;;;;;;;;;;;20.52;55.12;101034.75;5117899;27;960;-49
2021/09/10 05:01:32;;;;;;;;;;;;;;;20.46;55.45;101027.63;5117997;28;739;-54
2021/09/10 05:03:58;;;;;;;;;;;;;;;20.61;55.14;101026.63;5118605;28;839;-55
2021/09/10 05:06:23;;;;;;;;;;;;;;;20.58;55.21;101038.28;5117975;28;755;-51
2021/09/10 05:08:49;;;;;;;;;;;;;;;20.46;55.71;101029.56;5118266;28;1023;-50
2021/09/10 05:11:14;;;;;;;;;;;;;;;20.50;55.42;101027.88;5118172;27;811;-45
2021/09/10 05:13:39;;;;;;;;;;;;;;;20.40;55.87;101026.06;5117761;27;1914;-53
2021/09/10 05:16:05;;;;;;;;;;;;;;;20.41;55.96;101029.63;5118347;28;775;-45
2021/09/10 05:18:30;;;;;;;;;;;;;;;20.71;55.11;101031.25;5118166;28;760;-46
2021/09/10 05:20:56;;;;;;;;;;;;;;;20.66;54.79;101029.34;5121809;27;1604;-45
2021/09/10 05:23:21;;;;;;;;;;;;;;;20.49;55.46;101028.97;5138517;27;766;-44
2021/09/10 05:25:47;;;;;;;;;;;;;;;20.40;55.91;101031.56;5138676;27;807;-44
2021/09/10 05:28:12;;;;;;;;;;;;;;;20.47;55.49;101036.75;5137472;27;823;-49
2021/09/10 05:30:37;;;;;;;;;;;;;;;20.18;56.31;101034.84;5118414;27;992;-45
2021/09/10 05:33:03;;;;;;;;;;;;;;;20.38;55.78;101033.78;5117618;28;1979;-44
2021/09/10 05:35:28;;;;;;;;;;;;;;;20.27;56.15;101037.78;5118227;28;823;-55
2021/09/10 05:37:54;;;;;;;;;;;;;;;20.62;55.08;101033.81;5117476;28;803;-45
2021/09/10 05:40:21;;;;;;;;;;;;;;;20.70;54.92;101035.13;5117769;28;807;-48
2021/09/10 05:42:47;;;;;;;;;;;;;;;20.54;55.36;101026.16;5116439;28;859;-55
2021/09/10 05:45:12;;;;;;;;;;;;;;;20.49;55.74;101031.75;5116484;27;953;-44
2021/09/10 05:47:38;;;;;;;;;;;;;;;20.65;55.22;101029.59;5117853;28;775;-50
2021/09/10 05:50:03;;;;;;;;;;;;;;;20.73;54.69;101031.75;5117367;28;804;-53
2021/09/10 05:52:29;;;;;;;;;;;;;;;20.48;55.28;101036.47;5117003;28;775;-50
2021/09/10 05:54:54;;;;;;;;;;;;;;;20.49;55.43;101034.50;5117713;28;2016;-48
2021/09/10 05:57:20;;;;;;;;;;;;;;;20.63;55.02;101045.69;5117097;28;862;-48
2021/09/10 05:59:45;;;;;;;;;;;;;;;20.64;54.89;101039.84;5116743;27;1001;-53
2021/09/10 06:02:11;;;;;;;;;;;;;;;20.76;54.45;101039.47;5117101;28;834;-45
2021/09/10 06:04:36;;;;;;;;;;;;;;;20.85;54.27;101031.34;5117447;28;779;-53
2021/09/10 06:07:01;;;;;;;;;;;;;;;20.92;54.21;101042.84;5115359;27;831;-54
2021/09/10 06:09:27;;;;;;;;;;;;;;;21.00;53.82;101044.97;5117017;28;1181;-49
2021/09/10 06:11:53;;;;;;;;;;;;;;;20.90;54.17;101038.75;5116700;28;790;-55
2021/09/10 06:14:18;;;;;;;;;;;;;;;20.74;54.74;101041.69;5116294;27;1979;-55
2021/09/10 06:16:45;;;;;;;;;;;;;;;21.06;53.82;101039.38;5117473;28;1103;-49
2021/09/10 06:19:10;;;;;;;;;;;;;;;21.04;53.96;101045.16;5116558;28;807;-48
2021/09/10 06:21:36;;;;;;;;;;;;;;;20.84;54.56;101049.84;5125457;27;1605;-55
2021/09/10 06:24:01;;;;;;;;;;;;;;;21.07;53.81;101052.06;5136915;27;831;-53
2021/09/10 06:26:27;;;;;;;;;;;;;;;21.00;54.32;101049.69;5136900;27;545;-49
2021/09/10 06:28:52;;;;;;;;;;;;;;;21.14;53.81;101050.56;5131766;27;972;-55
2021/09/10 06:31:18;;;;;;;;;;;;;;;21.14;53.85;101046.97;5116306;28;747;-56
2021/09/10 06:33:43;;;;;;;;;;;;;;;21.05;54.18;101052.34;5116165;28;1917;-53
2021/09/10 06:36:09;;;;;;;;;;;;;;;21.03;54.15;101060.13;5115880;28;811;-56
2021/09/10 06:38:34;;;;;;;;;;;;;;;21.06;54.01;101056.78;5116270;28;811;-52
2021/09/10 06:41:00;;;;;;;;;;;;;;;21.08;53.98;101057.28;5116456;28;764;-55
2021/09/10 06:43:25;;;;;;;;;;;;;;;21.07;54.03;101058.41;5116027;27;957;-49
2021/09/10 06:45:50;;;;;;;;;;;;;;;21.04;54.19;101061.75;5116292;27;945;-52
2021/09/10 06:48:16;;;;;;;;;;;;;;;21.25;53.79;101069.78;5115904;28;771;-52
2021/09/10 06:50:42;;;;;;;;;;;;;;;21.26;53.58;101063.13;5115947;28;791;-52
2021/09/10 06:53:08;;;;;;;;;;;;;;;21.00;54.15;101060.75;5115959;28;1971;-49
2021/09/10 06:55:34;;;;;;;;;;;;;;;21.16;53.81;101064.91;5116148;28;807;-53
2021/09/10 06:57:59;;;;;;;;;;;;;;;21.04;54.13;101061.75;5115974;28;787;-53
2021/09/10 07:00:25;;;;;;;;;;;;;;;21.27;53.79;101071.13;5116067;27;957;-54
2021/09/10 07:02:50;;;;;;;;;;;;;;;21.06;54.13;101067.81;5115574;28;812;-55
2021/09/10 07:05:16;;;;;;;;;;;;;;;21.02;54.44;101078.66;5115907;28;724;-55
2021/09/10 07:07:41;;;;;;;;;;;;;;;21.25;53.69;101069.78;5116190;28;725;-53
2021/09/10 07:10:07;;;;;;;;;;;;;;;21.06;54.29;101067.81;5115957;28;1050;-45
2021/09/10 07:12:32;;;;;;;;;;;;;;;21.06;54.38;101070.59;5114311;28;858;-45
2021/09/10 07:14:58;;;;;;;;;;;;;;;20.98;54.57;101074.00;5115036;27;1983;-55
2021/09/10 07:17:24;;;;;;;;;;;;;;;21.19;53.96;101075.38;5116295;28;819;-54
2021/09/10 07:19:49;;;;;;;;;;;;;;;21.07;54.27;101077.78;5115908;28;771;-50
2021/09/10 07:22:15;;;;;;;;;;;;;;;21.10;54.36;101074.41;5130638;28;1593;-50
2021/09/10 07:24:41;;;;;;;;;;;;;;;21.14;54.22;101081.00;5136422;28;800;-51
2021/09/10 07:27:06;;;;;;;;;;;;;;;21.16;54.14;101081.50;5135985;27;755;-48
2021/09/10 07:29:31;;;;;;;;;;;;;;;21.04;54.40;101078.34;5125795;27;956;-57
2021/09/10 07:31:57;;;;;;;;;;;;;;;21.05;54.40;101074.47;5115843;28;823;-51
2021/09/10 07:34:22;;;;;;;;;;;;;;;21.16;53.99;101077.94;5115335;28;1918;-57
2021/09/10 07:36:52;;;;;;;;;;;;;;;21.24;53.93;101081.94;5115607;28;764;-50
2021/09/10 07:39:20;;;;;;;;;;;;;;;21.18;54.06;101079.28;5115772;28;743;-57
2021/09/10 07:41:46;;;;;;;;;;;;;;;21.19;54.04;101075.38;5115296;28;798;-55
2021/09/10 07:44:14;;;;;;;;;;;;;;;21.09;54.34;101083.81;5117572;27;827;-54
2021/09/10 07:46:40;;;;;;;;;;;;;;;21.31;53.79;101082.44;5115852;28;767;-56
2021/09/10 07:49:05;;;;;;;;;;;;;;;21.09;54.44;101088.53;5115449;28;806;-46
2021/09/10 07:51:31;;;;;;;;;;;;;;;20.95;54.99;101088.44;5143908;27;1505;-50
2021/09/10 07:53:56;;;;;;;;;;;;;;;21.19;54.04;101089.19;5160416;27;1984;-49
2021/09/10 07:56:22;;;;;;;;;;;;;;;21.10;54.72;101091.00;5160445;27;763;-47
2021/09/10 07:58:47;;;;;;;;;;;;;;;21.00;54.88;101085.63;5152292;27;1019;-47
2021/09/10 08:01:12;;;;;;;;;;;;;;;21.33;53.99;101085.72;5119228;28;819;-54
2021/09/10 08:03:38;;;;;;;;;;;;;;;;;;5118675;28;859;-44
2021/09/10 08:06:03;;;;;;;;;;;;;;;21.00;54.72;101082.84;5119226;28;767;-55
2021/09/10 08:08:29;;;;;;;;;;;;;;;21.02;54.16;101086.13;5119268;28;783;-53
2021/09/10 08:10:54;;;;;;;;;;;;;;;21.16;53.31;101081.50;5118618;28;1169;-53
2021/09/10 08:13:20;;;;;;;;;;;;;;;20.98;53.57;101082.31;5117874;27;1972;-53
2021/09/10 08:15:48;;;;;;;;;;;;;;;20.80;53.89;101079.22;5126554;27;948;-54
2021/09/10 08:18:14;;;;;;;;;;;;;;;20.81;53.82;101080.84;5127737;27;1025;-51
2021/09/10 08:20:42;;;;;;;;;;;;;;;20.91;53.39;101081.84;5136844;27;1627;-57
2021/09/10 08:23:11;;;;;;;;;;;;;;;20.77;53.61;101073.44;5117916;28;786;-56
2021/09/10 08:25:45;;;;;;;;;;;;;;;20.78;53.37;101073.16;5117417;28;755;-53
2021/09/10 08:28:10;;;;;;;;;;;;;;;20.77;53.38;101087.28;5118521;28;838;-53
2021/09/10 08:30:36;;;;;;;;;;;;;;;20.61;53.71;101084.66;5118261;27;961;-57
2021/09/10 08:33:01;;;;;;;;;;;;;;;20.62;53.50;101082.69;5117231;28;1971;-48
2021/09/10 08:35:33;;;;;;;;;;;;;;;20.72;53.10;101082.63;5118040;28;795;-49
2021/09/10 08:38:01;;;;;;;;;;;;;;;20.57;53.45;101082.78;5118520;28;783;-56
2021/09/10 08:40:27;;;;;;;;;;;;;;;20.70;53.23;101073.00;5117958;28;767;-55
2021/09/10 08:42:53;;;;;;;;;;;;;;;20.75;52.94;101075.66;5117433;28;740;-46
2021/09/10 08:45:18;;;;;;;;;;;;;;;20.62;53.39;101079.94;5117213;27;988;-53
2021/09/10 08:47:44;;;;;;;;;;;;;;;20.37;54.00;101076.34;5117797;28;771;-55
2021/09/10 08:50:10;;;;;;;;;;;;;;;20.70;53.03;101076.56;5117482;28;851;-55
2021/09/10 08:52:35;;;;;;;;;;;;;;;20.65;53.29;101071.06;5117682;28;775;-55
2021/09/10 08:55:01;;;;;;;;;;;;;;;20.52;53.41;101067.06;5117803;28;1914;-57
2021/09/10 08:57:30;;;;;;;;;;;;;;;20.44;53.70;101065.78;5117594;28;728;-56
2021/09/10 09:00:09;;;;;;;;;;;;;;;20.52;53.51;101067.91;5117269;27;957;-53
2021/09/10 09:02:37;;;;;;;;;;;;;;;20.77;52.66;101063.22;5114912;28;1203;-51
2021/09/10 09:05:03;;;;;;;;;;;;;;;20.55;53.29;101054.59;5117139;28;795;-54
2021/09/10 09:07:30;;;;;;;;;;;;;;;20.59;53.06;101062.00;5117548;28;801;-55
2021/09/10 09:09:57;;;;;;;;;;;;;;;20.46;53.50;101058.00;5117148;28;1038;-46
2021/09/10 09:12:23;;;;;;;;;;;;;;;20.48;53.30;101055.78;5117545;28;791;-47
2021/09/10 09:14:49;;;;;;;;;;;;;;;20.61;53.26;101047.94;5116334;27;1980;-54
2021/09/10 09:17:24;;;;;;;;;;;;;;;20.54;53.48;101058.47;5117339;28;955;-52
2021/09/10 09:20:09;;;;;;;;;;;;;;;20.40;53.67;101047.31;5117389;28;744;-53
2021/09/10 09:22:51;;;;;;;;;;;;;;;20.13;54.33;101055.06;5135536;27;1561;-56
2021/09/10 09:25:17;;;;;;;;;;;;;;;20.61;53.11;101043.22;5143274;27;840;-56
2021/09/10 09:27:42;;;;;;;;;;;;;;;20.43;53.68;101047.56;5147221;27;829;-56
2021/09/10 09:30:08;;;;;;;;;;;;;;;20.49;53.29;101032.56;5139115;27;1550;-51
2021/09/10 09:32:49;;;;;;;;;;;;;;;20.49;53.33;101045.56;5137754;27;779;-56
2021/09/10 09:35:18;;;;;;;;;;;;;;;20.49;53.56;101028.97;5152962;27;1980;-50
2021/09/10 09:37:47;;;;;;;;;;;;;;;20.61;53.28;101031.34;5158136;27;786;-54
2021/09/10 09:40:13;;;;;;;;;;;;;;;20.62;53.09;101031.06;5155947;27;774;-58
2021/09/10 09:42:39;;;;;;;;;;;;;;;20.60;53.06;101030.50;5137962;27;768;-54
2021/09/10 09:45:16;;;;;;;;;;;;;;;20.49;53.57;101018.75;5134698;27;993;-54
2021/09/10 09:47:48;;;;;;;;;;;;;;;20.56;53.34;101023.91;5136895;27;838;-52
2021/09/10 09:50:14;;;;;;;;;;;;;;;20.43;53.81;101028.22;5136956;27;743;-52
2021/09/10 09:52:40;;;;;;;;;;;;;;;20.34;54.02;101021.69;5135158;27;938;-56
2021/09/10 09:55:06;;;;;;;;;;;;;;;20.41;54.00;101022.19;5134803;27;1914;-50
2021/09/10 09:57:33;;;;;;;;;;;;;;;20.57;53.33;101019.25;5136967;27;748;-48
2021/09/10 10:00:05;;;;;;;;;;;;;;;20.41;53.99;101015.81;5122866;27;956;-56
2021/09/10 10:02:37;;;;;;;;;;;;;;;20.32;54.30;101010.13;5116042;28;803;-54
2021/09/10 10:05:03;;;;;;;;;;;;;;;20.34;54.22;100994.06;5115701;28;871;-55
2021/09/10 10:07:29;;;;;;;;;;;;;;;20.39;54.19;101007.81;5115446;28;1113;-52
2021/09/10 10:09:56;;;;;;;;;;;;;;;20.40;54.00;100997.59;5114498;28;1224;-54
2021/09/10 10:12:22;;;;;;;;;;;;;;;20.42;53.69;101001.72;5115244;28;775;-52
2021/09/10 10:14:47;;;;;;;;;;;;;;;20.36;54.04;101000.13;5125643;27;1914;-58
2021/09/10 10:17:31;;;;;;;;;;;;;;;20.43;53.98;101003.38;5136466;27;850;-54
2021/09/10 10:19:59;;;;;;;;;;;;;;;20.44;53.77;101005.00;5136674;27;837;-51
2021/09/10 10:22:32;;;;;;;;;;;;;;;20.43;53.74;101003.38;5136803;27;1659;-55
2021/09/10 10:25:01;;;;;;;;;;;;;;;20.46;53.58;101005.53;5134225;27;740;-51
2021/09/10 10:27:36;;;;;;;;;;;;;;;20.40;53.80;100998.44;5136164;27;786;-48
2021/09/10 10:30:14;;;;;;;;;;;;;;;20.41;53.46;101000.09;5122242;27;953;-57
2021/09/10 10:32:39;;;;;;;;;;;;;;;20.46;53.55;101001.97;5115782;28;811;-53
2021/09/10 10:35:11;;;;;;;;;;;;;;;20.34;53.78;100994.06;5116371;28;1913;-52
2021/09/10 10:37:37;;;;;;;;;;;;;;;20.43;53.50;100999.78;5115541;28;748;-54
2021/09/10 10:40:21;;;;;;;;;;;;;;;20.41;53.57;101002.84;5115156;28;756;-59
2021/09/10 10:42:50;;;;;;;;;;;;;;;20.52;53.21;100996.09;5115649;28;803;-53
2021/09/10 10:45:15;;;;;;;;;;;;;;;20.27;53.94;100999.13;5115619;27;984;-58
2021/09/10 10:47:41;;;;;;;;;;;;;;;20.52;53.30;100995.25;5114723;28;778;-57
2021/09/10 10:50:25;;;;;;;;;;;;;;;20.57;53.13;100994.38;5115944;28;739;-56
2021/09/10 10:52:56;;;;;;;;;;;;;;;20.64;52.63;100994.84;5115572;28;871;-55
2021/09/10 10:55:32;;;;;;;;;;;;;;;20.51;53.05;100999.94;5115736;28;1963;-57
2021/09/10 10:58:16;;;;;;;;;;;;;;;20.44;53.09;100988.44;5115406;28;559;-48
2021/09/10 11:00:42;;;;;;;;;;;;;;;20.25;53.53;100982.84;5115349;27;945;-55
2021/09/10 11:03:16;;;;;;;;;;;;;;;20.29;53.65;100980.34;5114978;28;759;-49
2021/09/10 11:05:46;;;;;;;;;;;;;;;20.38;53.59;100988.78;5115630;28;739;-54
2021/09/10 11:08:11;;;;;;;;;;;;;;;20.41;53.52;100986.28;5115177;28;759;-49
2021/09/10 11:10:37;;;;;;;;;;;;;;;20.49;53.08;100988.34;5115130;28;1032;-50
2021/09/10 11:13:02;;;;;;;;;;;;;;;20.49;53.10;100987.53;5115339;28;1902;-52
2021/09/10 11:15:32;;;;;;;;;;;;;;;20.40;53.16;100981.84;5115142;27;1008;-57
2021/09/10 11:17:58;;;;;;;;;;;;;;;20.50;53.20;100986.44;5114949;28;755;-52
2021/09/10 11:20:24;;;;;;;;;;;;;;;20.34;53.41;100994.06;5114998;28;763;-48
2021/09/10 11:22:50;;;;;;;;;;;;;;;20.48;53.01;100986.75;5135495;28;1660;-54
2021/09/10 11:25:15;;;;;;;;;;;;;;;20.44;52.99;100982.91;5135852;27;921;-56
2021/09/10 11:27:40;;;;;;;;;;;;;;;20.41;53.30;100975.22;5139915;27;699;-50
2021/09/10 11:30:07;;;;;;;;;;;;;;;20.36;53.29;100972.53;5125141;27;917;-55
2021/09/10 11:32:32;;;;;;;;;;;;;;;20.52;52.87;100968.47;5119030;28;755;-55
2021/09/10 11:34:58;;;;;;;;;;;;;;;20.41;53.28;100966.94;5119409;28;1972;-53
2021/09/10 11:37:33;;;;;;;;;;;;;;;20.43;53.37;100970.22;5118950;28;787;-54
2021/09/10 11:39:58;;;;;;;;;;;;;;;20.36;53.54;100964.22;5118948;28;798;-55
2021/09/10 11:42:34;;;;;;;;;;;;;;;20.23;53.91;100965.78;5118782;28;823;-49
2021/09/10 11:45:11;;;;;;;;;;;;;;;20.33;53.61;100964.81;5131254;27;965;-51
2021/09/10 11:47:36;;;;;;;;;;;;;;;20.33;53.51;100956.53;5139705;27;790;-50
2021/09/10 11:50:04;;;;;;;;;;;;;;;20.39;53.29;100966.41;5137778;27;973;-52
2021/09/10 11:52:41;;;;;;;;;;;;;;;20.41;53.16;100955.06;5144234;27;1494;-51
2021/09/10 11:55:12;;;;;;;;;;;;;;;20.32;53.38;100965.94;5138367;27;1909;-47
2021/09/10 11:57:39;;;;;;;;;;;;;;;20.17;53.73;100956.72;5138858;27;786;-52
2021/09/10 12:00:09;;;;;;;;;;;;;;;20.24;53.55;100952.78;5140200;27;885;-56
2021/09/10 12:02:38;;;;;;;;;;;;;;;20.33;53.18;100954.59;5139111;27;651;-58
2021/09/10 12:05:05;;;;;;;;;;;;;;;20.47;52.86;100954.69;5139034;27;786;-56
2021/09/10 12:07:31;;;;;;;;;;;;;;;20.24;53.68;100958.31;5139375;27;837;-56
2021/09/10 12:09:58;;;;;;;;;;;;;;;20.25;53.25;100951.66;5138335;27;1520;-56
2021/09/10 12:12:27;;;;;;;;;;;;;;;20.09;53.64;100943.56;5144590;27;1378;-55
2021/09/10 12:14:55;;;;;;;;;;;;;;;20.05;53.68;100941.66;5128732;27;1917;-53
2021/09/10 12:17:23;;;;;;;;;;;;;;;20.10;53.69;100947.94;5136492;27;1457;-54
2021/09/10 12:19:55;;;;;;;;;;;;;;;20.39;52.91;100943.50;5154475;27;818;-56
2021/09/10 12:22:39;;;;;;;;;;;;;;;20.34;52.80;100950.72;5143883;27;1623;-55
2021/09/10 12:25:24;;;;;;;;;;;;;;;20.25;53.07;100952.47;5138713;27;815;-52
2021/09/10 12:27:50;;;;;;;;;;;;;;;20.21;53.16;100959.69;5138619;27;740;-54
2021/09/10 12:30:17;;;;;;;;;;;;;;;20.03;53.76;100953.00;5137366;27;1015;-49
2021/09/10 12:32:43;;;;;;;;;;;;;;;20.20;53.45;100962.75;5138707;27;739;-50
2021/09/10 12:35:08;;;;;;;;;;;;;;;20.29;53.09;100952.72;5138751;27;1984;-55
2021/09/10 12:37:36;;;;;;;;;;;;;;;20.21;53.29;100953.38;5137700;27;806;-52
2021/09/10 12:40:05;;;;;;;;;;;;;;;20.20;53.23;100955.28;5138083;27;819;-55
2021/09/10 12:42:30;;;;;;;;;;;;;;;20.33;53.04;100953.78;5138610;27;767;-49
2021/09/10 12:44:56;;;;;;;;;;;;;;;20.14;53.55;100954.53;5124776;27;953;-56
2021/09/10 12:47:23;;;;;;;;;;;;;;;19.97;53.61;100935.66;5117978;28;826;-56
2021/09/10 12:49:52;;;;;;;;;;;;;;;20.16;53.54;100959.75;5117504;28;751;-53
2021/09/10 12:52:17;;;;;;;;;;;;;;;20.12;53.44;100956.78;5117404;28;1069;-49